Time;durP1;ratioP1;P1;durP2;ratioP2;P2;SDS_P1;SDS_P2;PMS_P1;PMS_P2;Temp;Humidity;BMP_temperature;BMP_pressure;BME280_temperature;BME280_humidity;BME280_pressure;Samples;Min_cycle;Max_cycle;Signal;HPM_P1;HPM_P2
2023/02/17 00:00:10;;;;;;;;;;;;;;;20.46;32.19;101601.41;106305;1282;60069;-80
2023/02/17 00:02:37;;;;;;;;;;;;;;;20.46;32.26;101601.25;106193;1282;61292;-80
2023/02/17 00:05:03;;;;;;;;;;;;;;;20.46;32.30;101600.90;106185;1282;60102;-80
2023/02/17 00:07:32;;;;;;;;;;;;;;;20.46;32.23;101601.61;106207;1287;61378;-81
2023/02/17 00:09:58;;;;;;;;;;;;;;;20.46;32.20;101603.39;106303;1282;61349;-81
2023/02/17 00:12:25;;;;;;;;;;;;;;;20.46;32.21;101596.42;106229;1281;61289;-81
2023/02/17 00:14:50;;;;;;;;;;;;;;;20.46;32.15;101599.98;106302;1282;61271;-81
2023/02/17 00:17:16;;;;;;;;;;;;;;;20.46;32.29;101600.15;106289;1282;61368;-81
2023/02/17 00:19:41;;;;;;;;;;;;;;;20.47;32.22;101596.92;106224;1282;61323;-81
2023/02/17 00:22:07;;;;;;;;;;;;;;;20.46;32.25;101595.87;106243;1282;61154;-81
2023/02/17 00:24:33;;;;;;;;;;;;;;;20.46;32.15;101596.23;106305;1282;61218;-81
2023/02/17 00:26:58;;;;;;;;;;;;;;;20.46;32.12;101596.06;106211;1282;61713;-81
2023/02/17 00:29:24;;;;;;;;;;;;;;;20.46;32.36;101591.76;106198;1287;61333;-81
2023/02/17 00:31:51;;;;;;;;;;;;;;;20.46;32.23;101581.73;106206;1282;61221;-81
2023/02/17 00:34:16;;;;;;;;;;;;;;;20.46;32.27;101572.98;106191;1282;61304;-81
2023/02/17 00:36:42;;;;;;;;;;;;;;;20.46;32.19;101568.67;106188;1282;61352;-81
2023/02/17 00:39:07;;;;;;;;;;;;;;;20.47;32.16;101568.29;106293;1282;61241;-81
2023/02/17 00:41:33;;;;;;;;;;;;;;;20.47;32.23;101565.25;106036;1282;75173;-81
2023/02/17 00:43:59;;;;;;;;;;;;;;;20.47;32.28;101559.02;106207;1282;61413;-80
2023/02/17 00:46:24;;;;;;;;;;;;;;;20.46;32.13;101555.98;106219;1282;61349;-80
2023/02/17 00:48:50;;;;;;;;;;;;;;;20.46;32.13;101550.79;106171;1282;61355;-80
2023/02/17 00:51:15;;;;;;;;;;;;;;;20.46;32.24;101548.65;106240;1283;61230;-80
2023/02/17 00:53:42;;;;;;;;;;;;;;;20.46;32.12;101545.46;106269;1282;75312;-80
2023/02/17 00:56:08;;;;;;;;;;;;;;;20.46;32.11;101545.80;106192;1282;61393;-80
2023/02/17 00:58:34;;;;;;;;;;;;;;;20.46;32.33;101541.16;106321;1283;61220;-80
2023/02/17 01:00:59;;;;;;;;;;;;;;;20.46;32.32;101536.16;106212;1282;61180;-80
2023/02/17 01:03:25;;;;;;;;;;;;;;;20.46;32.24;101537.41;106320;1282;61266;-80
2023/02/17 01:05:53;;;;;;;;;;;;;;;20.46;32.19;101530.44;106228;1282;61222;-80
2023/02/17 01:08:19;;;;;;;;;;;;;;;20.46;32.20;101525.07;106212;1283;61269;-80
2023/02/17 01:10:45;;;;;;;;;;;;;;;20.46;32.30;101522.55;106060;1282;61245;-80
2023/02/17 01:13:11;;;;;;;;;;;;;;;20.46;32.21;101521.83;106196;1282;61297;-81
2023/02/17 01:15:37;;;;;;;;;;;;;;;20.46;32.20;101512.92;106195;1282;61240;-81
2023/02/17 01:18:02;;;;;;;;;;;;;;;20.46;32.13;101507.75;106256;1282;60064;-81
2023/02/17 01:20:28;;;;;;;;;;;;;;;20.46;32.32;101506.85;106209;1282;61381;-81
2023/02/17 01:22:53;;;;;;;;;;;;;;;20.46;32.28;101500.91;106312;1282;61340;-81
2023/02/17 01:25:19;;;;;;;;;;;;;;;20.46;32.22;101501.27;106223;1282;61368;-81
2023/02/17 01:27:45;;;;;;;;;;;;;;;20.46;32.14;101503.27;106222;1282;61276;-81
2023/02/17 01:30:11;;;;;;;;;;;;;;;20.47;32.27;101505.55;106282;1282;61115;-81
2023/02/17 01:32:37;;;;;;;;;;;;;;;20.47;32.23;101499.65;106275;1282;61342;-81
2023/02/17 01:35:03;;;;;;;;;;;;;;;20.47;32.43;101494.28;106232;1283;61306;-81
2023/02/17 01:37:28;;;;;;;;;;;;;;;20.47;32.29;101494.80;106309;1282;61347;-81
2023/02/17 01:39:54;;;;;;;;;;;;;;;20.47;32.23;101495.16;106205;1282;61259;-81
2023/02/17 01:42:19;;;;;;;;;;;;;;;20.47;32.31;101493.89;106253;1282;61268;-81
2023/02/17 01:45:04;;;;;;;;;;;;;;;20.47;32.25;101492.11;106224;1282;61070;-80
2023/02/17 01:47:30;;;;;;;;;;;;;;;20.48;32.18;101496.17;106181;1282;73495;-80
2023/02/17 01:49:55;;;;;;;;;;;;;;;20.47;32.16;101493.35;106199;1282;61272;-80
2023/02/17 01:52:22;;;;;;;;;;;;;;;20.47;32.17;101491.95;106311;1282;61244;-80
2023/02/17 01:54:58;;;;;;;;;;;;;;;20.47;32.28;101493.17;106220;1283;61295;-80
2023/02/17 01:57:24;;;;;;;;;;;;;;;20.47;32.26;101485.48;106171;1283;74620;-80
2023/02/17 01:59:50;;;;;;;;;;;;;;;20.47;32.21;101486.05;106289;1282;61274;-80
2023/02/17 02:02:15;;;;;;;;;;;;;;;20.47;32.16;101487.66;106207;1282;61233;-80
2023/02/17 02:04:42;;;;;;;;;;;;;;;20.47;32.22;101486.77;106191;1282;61388;-81
2023/02/17 02:07:10;;;;;;;;;;;;;;;20.47;32.21;101482.12;106056;1282;61311;-81
2023/02/17 02:09:37;;;;;;;;;;;;;;;20.48;32.18;101474.92;106198;1282;61176;-81
2023/02/17 02:12:14;;;;;;;;;;;;;;;20.47;32.22;101468.33;106111;1282;61332;-80
2023/02/17 02:14:40;;;;;;;;;;;;;;;20.47;32.25;101469.95;106227;1287;72458;-80
2023/02/17 02:17:32;;;;;;;;;;;;;;;20.47;32.31;101462.94;106216;1283;61292;-80
2023/02/17 02:20:21;;;;;;;;;;;;;;;20.47;32.28;101455.63;106288;1282;61365;-80
2023/02/17 02:22:58;;;;;;;;;;;;;;;20.48;32.24;101451.14;105644;1288;61202;-80
2023/02/17 02:25:30;;;;;;;;;;;;;;;20.48;32.24;101450.06;105637;1288;72403;-80
2023/02/17 02:28:21;;;;;;;;;;;;;;;20.48;32.27;101443.09;105628;1288;75949;-80
2023/02/17 02:31:22;;;;;;;;;;;;;;;20.48;32.39;101448.28;105397;1288;61171;-81
2023/02/17 02:34:06;;;;;;;;;;;;;;;20.48;32.30;101450.07;105012;1296;61198;-81
2023/02/17 02:36:33;;;;;;;;;;;;;;;20.47;32.30;101448.11;104993;1297;73233;-81
2023/02/17 02:39:01;;;;;;;;;;;;;;;20.48;32.33;101446.11;105001;1296;74473;-80
2023/02/17 02:41:31;;;;;;;;;;;;;;;20.47;32.24;101450.27;105014;1296;61144;-80
2023/02/17 02:43:57;;;;;;;;;;;;;;;20.48;32.18;101448.27;105033;1296;61428;-80
2023/02/17 02:46:22;;;;;;;;;;;;;;;20.47;32.25;101449.36;105007;1295;61356;-80
2023/02/17 02:48:48;;;;;;;;;;;;;;;20.47;32.25;101451.33;105017;1297;61379;-80
2023/02/17 02:51:23;;;;;;;;;;;;;;;20.48;32.16;101455.79;104983;1295;61450;-80
2023/02/17 02:54:03;;;;;;;;;;;;;;;20.47;32.21;101459.38;104904;1296;61256;-80
2023/02/17 02:56:57;;;;;;;;;;;;;;;20.47;32.37;101461.88;105053;1297;72936;-80
2023/02/17 02:59:42;;;;;;;;;;;;;;;20.48;32.09;101462.40;104518;1297;75482;-81
2023/02/17 03:02:07;;;;;;;;;;;;;;;20.48;32.17;101467.91;104828;1297;61204;-81
2023/02/17 03:04:37;;;;;;;;;;;;;;;20.48;32.30;101467.91;104816;1297;61475;-81
2023/02/17 03:07:04;;;;;;;;;;;;;;;20.48;32.06;101464.17;104838;1297;74425;-81
2023/02/17 03:09:30;;;;;;;;;;;;;;;20.48;32.29;101460.40;105377;1290;75462;-81
2023/02/17 03:11:56;;;;;;;;;;;;;;;20.48;32.33;101460.41;105359;1291;61394;-80
2023/02/17 03:14:21;;;;;;;;;;;;;;;20.48;32.12;101462.05;105179;1291;61325;-80
2023/02/17 03:16:47;;;;;;;;;;;;;;;20.48;32.26;101459.89;105307;1291;61491;-79
2023/02/17 03:19:14;;;;;;;;;;;;;;;20.47;32.21;101457.23;105202;1291;61374;-80
2023/02/17 03:22:12;;;;;;;;;;;;;;;20.47;32.25;101460.80;105336;1291;61347;-80
2023/02/17 03:24:38;;;;;;;;;;;;;;;20.48;32.26;101456.67;105144;1291;61108;-81
2023/02/17 03:27:03;;;;;;;;;;;;;;;20.48;32.22;101458.65;105381;1291;61372;-80
2023/02/17 03:29:29;;;;;;;;;;;;;;;20.48;32.18;101458.64;105306;1293;61248;-80
2023/02/17 03:31:54;;;;;;;;;;;;;;;20.48;32.27;101457.74;105389;1291;61334;-80
2023/02/17 03:34:20;;;;;;;;;;;;;;;20.48;32.24;101454.34;105355;1291;61274;-81
2023/02/17 03:36:45;;;;;;;;;;;;;;;20.47;32.24;101441.86;105801;1282;61332;-81
2023/02/17 03:39:10;;;;;;;;;;;;;;;20.47;32.13;101436.66;106307;1282;61269;-80
2023/02/17 03:41:36;;;;;;;;;;;;;;;20.47;32.26;101432.58;106296;1283;61305;-81
2023/02/17 03:44:02;;;;;;;;;;;;;;;20.47;32.08;101435.08;106237;1282;61332;-81
2023/02/17 03:46:28;;;;;;;;;;;;;;;20.47;32.06;101430.98;106063;1281;61345;-81
2023/02/17 03:48:54;;;;;;;;;;;;;;;20.47;32.12;101430.80;106243;1283;61336;-81
2023/02/17 03:51:20;;;;;;;;;;;;;;;20.47;32.01;101428.47;106259;1282;74574;-81
2023/02/17 03:53:45;;;;;;;;;;;;;;;20.47;32.15;101425.25;106420;1281;61217;-79
2023/02/17 03:56:11;;;;;;;;;;;;;;;20.47;32.31;101425.41;106135;1287;61317;-80
2023/02/17 03:58:37;;;;;;;;;;;;;;;20.47;32.23;101422.20;106113;1282;61211;-80
2023/02/17 04:01:03;;;;;;;;;;;;;;;20.48;32.16;101430.73;105986;1288;61270;-80
2023/02/17 04:03:28;;;;;;;;;;;;;;;20.48;32.10;101432.50;106216;1285;61376;-80
2023/02/17 04:05:54;;;;;;;;;;;;;;;20.48;32.14;101428.42;106248;1285;61215;-80
2023/02/17 04:08:21;;;;;;;;;;;;;;;20.48;32.15;101428.05;106123;1283;61912;-80
2023/02/17 04:10:51;;;;;;;;;;;;;;;20.48;32.14;101427.18;106100;1282;61327;-80
2023/02/17 04:13:17;;;;;;;;;;;;;;;20.47;32.20;101427.91;106187;1282;72478;-80
2023/02/17 04:15:42;;;;;;;;;;;;;;;20.47;31.97;101429.70;106115;1283;61402;-80
2023/02/17 04:18:08;;;;;;;;;;;;;;;20.47;32.04;101428.30;105925;1282;61390;-80
2023/02/17 04:20:33;;;;;;;;;;;;;;;20.47;31.97;101431.86;106110;1282;61290;-80
2023/02/17 04:22:59;;;;;;;;;;;;;;;20.47;32.04;101435.61;106122;1288;67409;-80
2023/02/17 04:25:25;;;;;;;;;;;;;;;20.47;32.11;101432.77;105990;1282;61265;-81
2023/02/17 04:27:52;;;;;;;;;;;;;;;20.47;31.91;101432.94;106205;1287;61272;-81
2023/02/17 04:30:17;;;;;;;;;;;;;;;20.47;32.12;101434.21;106310;1282;61370;-81
2023/02/17 04:32:45;;;;;;;;;;;;;;;20.46;32.14;101431.91;106216;1281;61765;-81
2023/02/17 04:35:12;;;;;;;;;;;;;;;20.46;32.06;101435.30;106235;1283;73360;-81
2023/02/17 04:37:39;;;;;;;;;;;;;;;20.46;31.96;101430.64;106312;1282;75528;-81
2023/02/17 04:40:09;;;;;;;;;;;;;;;20.47;31.99;101431.52;106214;1283;61310;-80
2023/02/17 04:42:35;;;;;;;;;;;;;;;20.47;31.94;101433.15;106217;1282;61208;-80
2023/02/17 04:45:00;;;;;;;;;;;;;;;20.46;32.04;101428.86;106030;1283;61166;-80
2023/02/17 04:47:27;;;;;;;;;;;;;;;20.47;32.06;101422.40;106219;1282;61422;-80
2023/02/17 04:49:52;;;;;;;;;;;;;;;20.47;32.01;101427.58;106317;1282;61266;-80
2023/02/17 04:52:18;;;;;;;;;;;;;;;20.47;32.05;101436.33;105997;1282;61420;-80
2023/02/17 04:54:43;;;;;;;;;;;;;;;20.47;32.02;101438.14;106162;1282;61268;-80
2023/02/17 04:57:09;;;;;;;;;;;;;;;20.47;32.02;101438.14;106316;1282;61281;-81
2023/02/17 04:59:34;;;;;;;;;;;;;;;20.46;31.94;101445.85;106201;1286;61262;-80
2023/02/17 05:02:00;;;;;;;;;;;;;;;20.47;31.94;101450.83;106176;1282;61307;-80
2023/02/17 05:04:25;;;;;;;;;;;;;;;20.46;32.02;101453.70;106067;1282;61714;-80
2023/02/17 05:06:51;;;;;;;;;;;;;;;20.46;31.98;101452.64;106201;1282;59965;-81
2023/02/17 05:09:16;;;;;;;;;;;;;;;20.46;32.06;101462.28;106269;1282;61365;-81
2023/02/17 05:11:42;;;;;;;;;;;;;;;20.46;32.14;101469.09;106200;1282;61477;-81
2023/02/17 05:14:07;;;;;;;;;;;;;;;20.47;31.91;101472.27;106205;1283;61256;-80
2023/02/17 05:16:33;;;;;;;;;;;;;;;20.46;31.99;101475.55;106205;1282;61362;-80
2023/02/17 05:18:59;;;;;;;;;;;;;;;20.45;32.04;101471.83;106182;1288;61207;-82
2023/02/17 05:21:24;;;;;;;;;;;;;;;20.41;32.01;101470.08;106274;1283;61378;-81
2023/02/17 05:23:50;;;;;;;;;;;;;;;20.37;31.93;101480.01;106207;1282;74679;-79
2023/02/17 05:26:16;;;;;;;;;;;;;;;20.31;32.04;101482.64;106327;1282;61169;-81
2023/02/17 05:28:41;;;;;;;;;;;;;;;20.25;32.07;101489.59;106306;1282;61831;-81
2023/02/17 05:31:07;;;;;;;;;;;;;;;20.19;31.99;101492.23;106175;1282;61444;-81
2023/02/17 05:33:33;;;;;;;;;;;;;;;20.14;31.91;101490.58;106276;1283;61260;-80
2023/02/17 05:36:02;;;;;;;;;;;;;;;20.09;31.84;101488.52;106287;1285;61356;-82
2023/02/17 05:38:28;;;;;;;;;;;;;;;20.05;31.88;101486.46;106274;1281;61352;-81
2023/02/17 05:40:53;;;;;;;;;;;;;;;20.02;31.77;101492.71;106439;1283;61259;-81
2023/02/17 05:43:19;;;;;;;;;;;;;;;19.99;31.83;101495.74;106360;1282;61335;-81
2023/02/17 05:45:44;;;;;;;;;;;;;;;19.96;31.77;101496.96;106229;1288;61236;-81
2023/02/17 05:48:10;;;;;;;;;;;;;;;19.91;31.77;101495.08;106363;1282;59490;-82
2023/02/17 05:50:35;;;;;;;;;;;;;;;19.86;31.72;101494.46;106257;1283;61208;-82
2023/02/17 05:53:02;;;;;;;;;;;;;;;19.82;31.53;101496.45;106272;1287;61371;-83
2023/02/17 05:55:28;;;;;;;;;;;;;;;19.79;31.51;101496.98;106100;1287;59577;-81
2023/02/17 05:57:53;;;;;;;;;;;;;;;19.74;31.48;101498.09;106386;1283;60017;-81
2023/02/17 06:00:19;;;;;;;;;;;;;;;19.71;31.36;101498.10;106216;1283;61259;-82
2023/02/17 06:02:44;;;;;;;;;;;;;;;19.68;31.36;101498.84;106349;1282;59553;-82
2023/02/17 06:05:11;;;;;;;;;;;;;;;19.65;31.34;101500.91;106182;1282;61228;-81
2023/02/17 06:07:37;;;;;;;;;;;;;;;19.64;31.37;101510.45;106181;1282;73562;-81
2023/02/17 06:10:02;;;;;;;;;;;;;;;19.66;31.28;101517.28;106313;1285;59615;-82
2023/02/17 06:12:28;;;;;;;;;;;;;;;19.71;31.21;101521.53;106231;1282;61891;-82
2023/02/17 06:14:53;;;;;;;;;;;;;;;19.74;31.19;101531.52;106241;1282;59423;-82
2023/02/17 06:17:20;;;;;;;;;;;;;;;19.77;31.08;101537.41;106268;1288;61255;-82
2023/02/17 06:19:46;;;;;;;;;;;;;;;19.78;31.12;101542.58;106433;1282;72579;-82
2023/02/17 06:22:11;;;;;;;;;;;;;;;19.76;31.13;101544.81;106307;1282;61281;-81
2023/02/17 06:24:37;;;;;;;;;;;;;;;19.75;31.05;101539.83;106233;1285;61304;-82
2023/02/17 06:27:03;;;;;;;;;;;;;;;19.78;30.96;101544.88;106206;1286;61394;-81
2023/02/17 06:29:28;;;;;;;;;;;;;;;19.80;31.01;101552.82;106267;1284;61284;-81
2023/02/17 06:31:54;;;;;;;;;;;;;;;19.83;30.90;101556.62;106356;1282;61246;-82
2023/02/17 06:34:19;;;;;;;;;;;;;;;19.86;30.99;101557.34;106246;1287;74503;-81
2023/02/17 06:36:46;;;;;;;;;;;;;;;19.90;30.87;101558.70;106229;1283;61361;-81
2023/02/17 06:39:12;;;;;;;;;;;;;;;19.95;30.90;101552.42;106288;1285;61147;-81
2023/02/17 06:41:37;;;;;;;;;;;;;;;19.99;30.70;101547.35;106337;1285;61362;-81
2023/02/17 06:44:03;;;;;;;;;;;;;;;20.04;30.72;101545.48;106347;1282;61040;-81
2023/02/17 06:46:28;;;;;;;;;;;;;;;20.07;30.70;101546.36;106396;1282;62381;-81
2023/02/17 06:48:54;;;;;;;;;;;;;;;20.11;30.57;101548.98;106197;1283;61224;-81
2023/02/17 06:51:19;;;;;;;;;;;;;;;20.15;30.62;101551.30;106282;1283;59677;-82
2023/02/17 06:53:45;;;;;;;;;;;;;;;20.19;30.40;101560.75;106217;1285;59709;-82
2023/02/17 06:56:10;;;;;;;;;;;;;;;20.18;30.39;101562.73;106007;1282;60668;-82
2023/02/17 06:58:36;;;;;;;;;;;;;;;20.15;30.54;101566.67;106236;1282;60552;-82
2023/02/17 07:01:02;;;;;;;;;;;;;;;20.13;30.58;101564.28;106102;1283;61279;-83
2023/02/17 07:03:29;;;;;;;;;;;;;;;20.06;30.54;101566.77;105656;1283;61122;-82
2023/02/17 07:05:58;;;;;;;;;;;;;;;20.01;30.63;101566.17;106144;1288;61236;-82
2023/02/17 07:08:23;;;;;;;;;;;;;;;20.01;30.62;101564.02;106377;1285;75591;-81
2023/02/17 07:10:49;;;;;;;;;;;;;;;20.04;30.71;101562.61;106211;1282;61452;-81
2023/02/17 07:13:15;;;;;;;;;;;;;;;20.07;30.60;101564.77;106173;1283;62306;-81
2023/02/17 07:15:40;;;;;;;;;;;;;;;20.11;30.64;101563.67;106277;1282;59617;-81
2023/02/17 07:18:06;;;;;;;;;;;;;;;20.14;30.53;101562.63;106156;1283;62505;-81
2023/02/17 07:20:32;;;;;;;;;;;;;;;20.16;30.66;101559.45;106308;1283;61062;-80
2023/02/17 07:22:59;;;;;;;;;;;;;;;20.18;30.68;101566.66;106313;1282;61224;-80
2023/02/17 07:25:25;;;;;;;;;;;;;;;20.20;30.61;101574.95;106299;1283;61099;-82
2023/02/17 07:27:50;;;;;;;;;;;;;;;20.22;30.58;101579.50;106209;1283;61281;-81
2023/02/17 07:30:16;;;;;;;;;;;;;;;20.24;30.52;101584.41;106171;1283;61426;-81
2023/02/17 07:32:42;;;;;;;;;;;;;;;20.25;30.63;101583.45;106154;1282;61068;-81
2023/02/17 07:35:07;;;;;;;;;;;;;;;20.26;30.68;101572.66;106259;1283;60072;-81
2023/02/17 07:37:33;;;;;;;;;;;;;;;20.27;30.61;101577.99;106239;1287;60062;-81
2023/02/17 07:39:58;;;;;;;;;;;;;;;20.28;30.48;101581.35;106164;1283;59988;-81
2023/02/17 07:42:25;;;;;;;;;;;;;;;20.29;30.67;101576.81;106189;1285;61141;-81
2023/02/17 07:44:51;;;;;;;;;;;;;;;20.30;30.56;101577.13;106195;1282;61326;-81
2023/02/17 07:47:16;;;;;;;;;;;;;;;20.30;30.60;101577.11;106261;1288;59369;-81
2023/02/17 07:49:42;;;;;;;;;;;;;;;20.31;30.85;101576.52;105987;1283;61441;-81
2023/02/17 07:52:07;;;;;;;;;;;;;;;20.30;30.82;101575.30;106145;1288;61742;-81
2023/02/17 07:54:33;;;;;;;;;;;;;;;20.29;30.75;101580.71;106149;1282;61390;-83
2023/02/17 07:56:58;;;;;;;;;;;;;;;20.20;30.52;101576.92;106237;1285;61266;-83
2023/02/17 07:59:24;;;;;;;;;;;;;;;20.09;30.96;101575.55;106262;1283;59813;-80
2023/02/17 08:01:49;;;;;;;;;;;;;;;20.02;31.02;101576.88;106319;1284;60857;-81
2023/02/17 08:04:15;;;;;;;;;;;;;;;19.96;31.10;101571.81;106210;1283;61301;-80
2023/02/17 08:06:40;;;;;;;;;;;;;;;19.91;31.13;101572.42;106143;1288;61322;-80
2023/02/17 08:14:34;;;;;;;;;;;;;;;19.76;31.41;101563.36;106167;1281;72388;-81
2023/02/17 08:17:01;;;;;;;;;;;;;;;19.72;31.39;101556.81;106182;1283;60067;-81
2023/02/17 08:19:26;;;;;;;;;;;;;;;19.70;31.30;101561.59;105994;1288;61221;-82
2023/02/17 08:21:52;;;;;;;;;;;;;;;19.67;31.37;101570.63;106155;1283;62542;-81
2023/02/17 08:24:18;;;;;;;;;;;;;;;19.64;31.41;101571.52;106034;1288;59886;-81
2023/02/17 08:26:44;;;;;;;;;;;;;;;19.61;31.47;101578.27;106854;1282;59824;-81
2023/02/17 08:29:09;;;;;;;;;;;;;;;19.59;31.34;101581.58;106775;1288;59090;-81
2023/02/17 08:31:35;;;;;;;;;;;;;;;19.58;31.46;101590.77;106918;1285;59807;-81
2023/02/17 08:34:01;;;;;;;;;;;;;;;19.56;31.53;101589.76;106376;1283;59972;-81
2023/02/17 08:36:26;;;;;;;;;;;;;;;19.55;31.27;101588.41;106257;1285;61315;-81
2023/02/17 08:38:52;;;;;;;;;;;;;;;19.55;31.19;101585.02;106046;1283;59980;-81
2023/02/17 08:41:19;;;;;;;;;;;;;;;19.53;31.21;101582.44;106203;1283;62320;-81
2023/02/17 08:43:44;;;;;;;;;;;;;;;19.51;31.29;101581.45;106311;1285;59784;-81
2023/02/17 08:46:10;;;;;;;;;;;;;;;19.50;31.13;101583.98;106246;1282;61262;-81
2023/02/17 08:48:36;;;;;;;;;;;;;;;19.50;31.14;101580.48;106240;1284;72668;-81
2023/02/17 08:51:01;;;;;;;;;;;;;;;19.48;31.29;101580.04;106314;1283;62267;-81
2023/02/17 08:53:27;;;;;;;;;;;;;;;19.47;31.01;101585.44;106331;1283;61288;-81
2023/02/17 08:55:52;;;;;;;;;;;;;;;19.47;31.22;101591.16;106255;1286;60082;-81
2023/02/17 08:58:18;;;;;;;;;;;;;;;19.46;31.07;101589.75;106324;1286;61349;-80
2023/02/17 09:00:43;;;;;;;;;;;;;;;19.48;31.08;101586.29;106066;1283;72419;-80
2023/02/17 09:03:09;;;;;;;;;;;;;;;19.53;31.10;101584.08;106197;1286;61278;-82
2023/02/17 09:05:35;;;;;;;;;;;;;;;19.57;30.92;101588.85;106242;1283;60091;-81
2023/02/17 09:08:00;;;;;;;;;;;;;;;19.52;30.93;101592.52;106233;1286;59863;-82
2023/02/17 09:10:25;;;;;;;;;;;;;;;19.47;30.95;101593.85;106264;1283;61285;-82
2023/02/17 09:12:51;;;;;;;;;;;;;;;19.46;30.96;101594.23;106276;1286;60086;-81
2023/02/17 09:15:17;;;;;;;;;;;;;;;19.44;31.03;101591.66;106198;1283;60040;-81
2023/02/17 09:17:43;;;;;;;;;;;;;;;19.42;30.94;101591.71;106293;1283;61929;-81
2023/02/17 09:20:09;;;;;;;;;;;;;;;19.43;30.91;101592.44;106195;1283;61304;-81
2023/02/17 09:22:34;;;;;;;;;;;;;;;19.45;31.13;101598.56;106345;1282;61129;-82
2023/02/17 09:25:00;;;;;;;;;;;;;;;19.48;31.02;101597.18;106225;1287;61179;-81
2023/02/17 09:27:25;;;;;;;;;;;;;;;19.52;31.05;101600.70;106209;1282;61317;-82
2023/02/17 09:29:51;;;;;;;;;;;;;;;19.57;31.10;101604.70;106216;1283;61310;-82
2023/02/17 09:32:16;;;;;;;;;;;;;;;19.60;31.19;101603.48;106199;1282;61368;-82
2023/02/17 09:34:51;;;;;;;;;;;;;;;19.63;31.26;101619.61;106162;1282;59500;-81
2023/02/17 09:37:17;;;;;;;;;;;;;;;19.64;31.26;101623.81;106610;1283;75390;-82
2023/02/17 09:39:43;;;;;;;;;;;;;;;19.67;31.29;101617.09;106193;1288;59551;-82
2023/02/17 09:42:16;;;;;;;;;;;;;;;19.68;31.29;101618.27;106176;1283;61162;-82
2023/02/17 09:44:43;;;;;;;;;;;;;;;19.69;31.22;101625.73;106228;1283;73488;-82
2023/02/17 09:47:18;;;;;;;;;;;;;;;19.69;31.26;101625.34;106149;1283;76527;-82
2023/02/17 09:49:50;;;;;;;;;;;;;;;19.70;31.31;101622.42;106229;1288;59742;-81
2023/02/17 09:52:30;;;;;;;;;;;;;;;19.71;31.26;101623.10;106629;1282;62042;-81
2023/02/17 09:54:58;;;;;;;;;;;;;;;19.72;31.20;101621.64;106352;1283;73142;-82
2023/02/17 09:57:26;;;;;;;;;;;;;;;19.73;31.03;101614.27;106298;1283;74696;-82
2023/02/17 09:59:53;;;;;;;;;;;;;;;19.72;31.05;101613.60;106802;1283;59998;-82
2023/02/17 10:02:39;;;;;;;;;;;;;;;19.72;30.97;101614.46;106171;1283;61547;-82
2023/02/17 10:05:06;;;;;;;;;;;;;;;19.70;31.06;101608.15;106147;1286;73623;-82
2023/02/17 10:07:33;;;;;;;;;;;;;;;19.65;30.97;101608.08;106137;1287;60321;-82
2023/02/17 10:10:03;;;;;;;;;;;;;;;19.63;31.07;101603.35;106299;1285;61055;-82
2023/02/17 10:12:30;;;;;;;;;;;;;;;19.63;31.31;101598.36;106184;1285;61403;-82
2023/02/17 10:15:00;;;;;;;;;;;;;;;19.61;31.21;101598.30;106189;1284;61243;-81
2023/02/17 10:17:31;;;;;;;;;;;;;;;19.59;31.23;101598.56;106279;1282;74314;-82
2023/02/17 10:20:02;;;;;;;;;;;;;;;19.59;31.40;101598.76;106193;1282;62818;-81
2023/02/17 10:22:27;;;;;;;;;;;;;;;19.60;31.50;101593.33;106329;1281;60716;-80
2023/02/17 10:24:53;;;;;;;;;;;;;;;19.63;31.44;101590.86;106284;1282;60894;-80
2023/02/17 10:27:31;;;;;;;;;;;;;;;19.67;31.37;101582.46;106224;1285;60979;-82
2023/02/17 10:29:57;;;;;;;;;;;;;;;19.71;31.58;101579.00;106193;1282;59829;-80
2023/02/17 10:32:24;;;;;;;;;;;;;;;19.76;31.52;101578.57;106289;1282;61205;-80
2023/02/17 10:35:09;;;;;;;;;;;;;;;19.79;31.53;101580.36;106287;1283;61647;-80
2023/02/17 10:37:48;;;;;;;;;;;;;;;19.83;31.53;101576.98;106547;1281;74643;-81
2023/02/17 10:40:14;;;;;;;;;;;;;;;19.88;31.62;101575.83;106492;1282;61337;-80
2023/02/17 10:42:39;;;;;;;;;;;;;;;19.90;31.41;101582.29;106454;1282;59509;-81
2023/02/17 10:45:09;;;;;;;;;;;;;;;19.92;31.59;101582.02;106198;1283;60034;-82
2023/02/17 10:47:35;;;;;;;;;;;;;;;19.95;31.70;101585.98;106352;1285;74627;-81
2023/02/17 10:50:01;;;;;;;;;;;;;;;19.96;31.64;101578.63;106201;1285;59672;-81
2023/02/17 10:52:33;;;;;;;;;;;;;;;19.97;31.64;101575.31;106300;1282;61310;-81
2023/02/17 10:54:59;;;;;;;;;;;;;;;19.98;31.69;101572.63;106483;1281;73387;-81
2023/02/17 10:57:26;;;;;;;;;;;;;;;20.00;31.68;101577.67;106319;1285;61256;-80
2023/02/17 10:59:52;;;;;;;;;;;;;;;20.02;31.70;101581.48;106178;1282;60932;-82
2023/02/17 11:02:27;;;;;;;;;;;;;;;20.03;31.73;101583.97;106270;1285;61281;-81
2023/02/17 11:04:53;;;;;;;;;;;;;;;19.98;31.76;101580.63;106242;1282;73352;-82
2023/02/17 11:07:22;;;;;;;;;;;;;;;19.84;31.54;101575.49;106256;1283;61399;-81
2023/02/17 11:09:48;;;;;;;;;;;;;;;19.76;31.75;101566.55;106314;1286;61004;-81
2023/02/17 11:12:15;;;;;;;;;;;;;;;19.77;31.85;101561.36;106256;1282;61239;-81
2023/02/17 11:14:45;;;;;;;;;;;;;;;19.77;31.97;101555.44;106263;1282;73563;-81
2023/02/17 11:17:25;;;;;;;;;;;;;;;19.77;31.89;101550.96;106337;1282;75575;-82
2023/02/17 11:19:58;;;;;;;;;;;;;;;19.75;31.77;101551.82;106378;1282;60928;-82
2023/02/17 11:22:31;;;;;;;;;;;;;;;19.73;31.91;101554.27;106119;1285;60012;-81
2023/02/17 11:25:02;;;;;;;;;;;;;;;19.70;31.81;101553.47;106365;1283;73968;-82
2023/02/17 11:27:27;;;;;;;;;;;;;;;19.66;31.44;101554.61;106899;1281;74849;-82
2023/02/17 11:30:04;;;;;;;;;;;;;;;19.60;31.44;101553.30;106802;1283;59164;-82
2023/02/17 11:32:30;;;;;;;;;;;;;;;19.52;31.48;101551.42;106704;1282;59301;-82
2023/02/17 11:34:56;;;;;;;;;;;;;;;19.50;31.45;101552.98;106945;1283;72239;-81
2023/02/17 11:37:23;;;;;;;;;;;;;;;19.51;31.64;101549.17;106756;1282;59484;-82
2023/02/17 11:39:54;;;;;;;;;;;;;;;19.49;31.71;101543.93;106670;1283;59361;-82
2023/02/17 11:42:27;;;;;;;;;;;;;;;19.49;31.92;101541.45;106310;1282;62548;-82
2023/02/17 11:45:05;;;;;;;;;;;;;;;19.49;31.91;101539.83;106258;1285;73596;-83
2023/02/17 11:47:36;;;;;;;;;;;;;;;19.47;31.99;101540.08;106144;1282;75671;-82
2023/02/17 11:50:05;;;;;;;;;;;;;;;19.48;31.91;101542.73;106352;1282;61094;-82
2023/02/17 11:52:49;;;;;;;;;;;;;;;19.48;31.96;101534.67;106376;1282;60887;-82
2023/02/17 11:55:18;;;;;;;;;;;;;;;19.49;31.91;101532.32;106367;1282;72627;-82
2023/02/17 11:57:49;;;;;;;;;;;;;;;19.50;31.95;101525.13;106330;1281;74397;-81
2023/02/17 12:00:16;;;;;;;;;;;;;;;19.48;31.87;101520.05;106229;1283;59755;-82
2023/02/17 12:02:50;;;;;;;;;;;;;;;19.44;31.77;101516.49;106350;1283;61215;-82
2023/02/17 12:05:21;;;;;;;;;;;;;;;19.41;31.79;101506.68;106291;1283;73502;-83
2023/02/17 12:08:05;;;;;;;;;;;;;;;19.37;31.67;101502.23;106321;1282;75585;-82
2023/02/17 12:10:40;;;;;;;;;;;;;;;19.37;31.65;101496.89;106304;1283;62265;-82
2023/02/17 12:13:24;;;;;;;;;;;;;;;19.37;31.57;101497.80;106291;1282;61247;-82
2023/02/17 12:16:00;;;;;;;;;;;;;;;19.34;31.54;101499.36;106357;1282;71699;-82
2023/02/17 12:18:44;;;;;;;;;;;;;;;19.31;31.47;101496.31;106370;1283;74556;-81
2023/02/17 12:21:28;;;;;;;;;;;;;;;19.32;31.54;101497.89;106266;1286;61136;-82
2023/02/17 12:24:00;;;;;;;;;;;;;;;19.32;31.55;101493.05;106360;1282;60253;-82
2023/02/17 12:26:33;;;;;;;;;;;;;;;19.33;31.63;101494.95;106366;1282;73639;-81
2023/02/17 12:29:17;;;;;;;;;;;;;;;19.33;31.71;101497.27;106380;1282;74481;-82
2023/02/17 12:31:45;;;;;;;;;;;;;;;19.34;31.51;101498.13;106287;1282;61340;-82
2023/02/17 12:34:14;;;;;;;;;;;;;;;19.34;31.45;101498.64;106353;1282;60163;-82
2023/02/17 12:36:39;;;;;;;;;;;;;;;19.34;31.51;101501.33;106221;1282;72490;-82